createdAt,value
2023-02-27T00:01:24.595Z,2.60
2023-02-27T00:03:51.331Z,1.92
2023-02-27T00:06:20.326Z,2.15
2023-02-27T00:08:48.296Z,2.40
2023-02-27T00:11:17.059Z,2.10
2023-02-27T00:13:46.905Z,2.22
2023-02-27T00:16:14.025Z,2.38
2023-02-27T00:18:40.653Z,2.13
2023-02-27T00:21:12.859Z,2.25
2023-02-27T00:23:40.376Z,2.13
2023-02-27T00:26:06.855Z,1.95
2023-02-27T00:28:33.415Z,2.33
2023-02-27T00:30:59.960Z,2.20
2023-02-27T00:33:26.456Z,2.17
2023-02-27T00:36:03.647Z,2.20
2023-02-27T00:38:32.536Z,2.20
2023-02-27T00:40:59.344Z,2.22
2023-02-27T00:43:30.331Z,2.45
2023-02-27T00:45:56.862Z,2.22
2023-02-27T00:48:27.638Z,2.35
2023-02-27T00:50:56.475Z,2.33
2023-02-27T00:53:26.072Z,2.40
2023-02-27T00:55:59.744Z,1.88
2023-02-27T00:58:26.172Z,2.30
2023-02-27T01:00:52.713Z,2.05
2023-02-27T01:03:19.421Z,2.10
2023-02-27T01:05:46.165Z,1.85
2023-02-27T01:08:14.929Z,2.30
2023-02-27T01:10:43.732Z,2.15
2023-02-27T01:13:11.274Z,2.33
2023-02-27T01:15:40.612Z,2.17
2023-02-27T01:18:07.074Z,1.95
2023-02-27T01:20:33.947Z,1.98
2023-02-27T01:23:00.487Z,2.70
2023-02-27T01:25:27.023Z,2.22
2023-02-27T01:27:53.492Z,2.05
2023-02-27T01:30:20.035Z,1.92
2023-02-27T01:32:46.638Z,2.28
2023-02-27T01:35:13.221Z,1.67
2023-02-27T01:37:39.811Z,2.38
2023-02-27T01:40:08.355Z,1.80
2023-02-27T01:45:33.642Z,2.10
2023-02-27T01:48:37.240Z,1.63
2023-02-27T01:51:22.212Z,1.60
2023-02-27T01:53:52.286Z,2.10
2023-02-27T01:56:26.214Z,2.00
2023-02-27T01:58:57.683Z,2.22
2023-02-27T02:01:24.953Z,1.85
2023-02-27T02:04:17.815Z,1.67
2023-02-27T02:06:49.094Z,2.00
2023-02-27T02:09:18.489Z,2.08
2023-02-27T02:11:45.035Z,2.60
2023-02-27T02:14:13.770Z,1.58
2023-02-27T02:16:43.214Z,2.10
2023-02-27T02:19:29.232Z,2.47
2023-02-27T02:22:16.202Z,1.65
2023-02-27T02:25:15.366Z,1.63
2023-02-27T02:28:10.172Z,1.70
2023-02-27T02:30:55.094Z,1.30
2023-02-27T02:33:40.916Z,1.40
2023-02-27T02:37:09.665Z,1.60
2023-02-27T02:39:59.372Z,1.80
2023-02-27T02:42:34.613Z,1.95
2023-02-27T02:45:22.011Z,2.03
2023-02-27T02:48:13.477Z,1.63
2023-02-27T02:50:50.155Z,1.63
2023-02-27T02:53:37.391Z,1.83
2023-02-27T02:56:20.649Z,1.92
2023-02-27T02:58:55.990Z,1.90
2023-02-27T03:01:30.697Z,2.00
2023-02-27T03:04:05.921Z,2.00
2023-02-27T03:06:47.553Z,1.83
2023-02-27T03:09:26.713Z,1.98
2023-02-27T03:11:55.188Z,2.13
2023-02-27T03:17:22.580Z,1.90
2023-02-27T03:20:08.604Z,2.30
2023-02-27T03:22:40.235Z,2.03
2023-02-27T03:25:10.699Z,2.33
2023-02-27T03:27:44.661Z,2.00
2023-02-27T03:30:34.160Z,2.05
2023-02-27T03:33:22.116Z,2.50
2023-02-27T03:36:01.091Z,2.65
2023-02-27T03:38:41.162Z,2.28
2023-02-27T03:41:29.147Z,2.05
2023-02-27T03:44:12.893Z,1.77
2023-02-27T03:46:41.173Z,2.10
2023-02-27T03:49:11.043Z,2.22
2023-02-27T03:51:37.576Z,2.17
2023-02-27T03:54:10.610Z,1.98
2023-02-27T03:57:07.494Z,2.25
2023-02-27T03:59:36.036Z,2.45
2023-02-27T04:04:32.739Z,1.88
2023-02-27T04:07:32.063Z,2.33
2023-02-27T04:10:30.400Z,1.77
2023-02-27T04:13:04.124Z,2.00
2023-02-27T04:15:31.427Z,1.92
2023-02-27T04:18:35.413Z,2.50
2023-02-27T04:21:15.433Z,2.30
2023-02-27T04:23:54.913Z,2.10
2023-02-27T04:26:39.431Z,2.20
2023-02-27T04:29:08.083Z,2.65
2023-02-27T04:32:01.645Z,2.50
2023-02-27T04:34:45.468Z,2.47
2023-02-27T04:37:17.713Z,2.28
2023-02-27T04:40:00.704Z,2.15
2023-02-27T04:42:32.318Z,2.15
2023-02-27T04:45:04.384Z,2.47
2023-02-27T04:47:36.646Z,2.00
2023-02-27T04:50:19.932Z,2.22
2023-02-27T04:53:02.438Z,2.00
2023-02-27T04:55:41.736Z,1.70
2023-02-27T04:58:15.535Z,2.33
2023-02-27T05:00:48.136Z,2.33
2023-02-27T05:03:22.186Z,2.10
2023-02-27T05:05:51.220Z,1.67
2023-02-27T05:08:43.373Z,1.92
2023-02-27T05:11:29.937Z,2.05
2023-02-27T05:14:08.362Z,2.28
2023-02-27T05:19:20.648Z,2.33
2023-02-27T05:21:54.507Z,2.33
2023-02-27T05:24:37.629Z,2.17
2023-02-27T05:27:19.171Z,3.00
2023-02-27T05:29:51.928Z,3.03
2023-02-27T05:32:27.732Z,2.50
2023-02-27T05:35:25.523Z,2.47
2023-02-27T05:38:01.321Z,2.58
2023-02-27T05:40:46.792Z,2.38
2023-02-27T05:43:23.813Z,2.75
2023-02-27T05:45:56.508Z,2.03
2023-02-27T05:48:33.044Z,1.95
2023-02-27T05:51:03.829Z,2.10
2023-02-27T05:53:35.584Z,2.08
2023-02-27T05:56:06.470Z,2.22
2023-02-27T05:58:39.036Z,1.70
2023-02-27T06:01:10.780Z,2.65
2023-02-27T06:03:42.537Z,1.70
2023-02-27T06:06:16.334Z,2.85
2023-02-27T06:08:43.588Z,2.30
2023-02-27T06:11:13.342Z,1.95
2023-02-27T06:13:41.943Z,2.17
2023-02-27T06:16:11.109Z,2.28
2023-02-27T06:18:42.443Z,2.20
2023-02-27T06:21:14.740Z,2.45
2023-02-27T06:23:46.067Z,1.70
2023-02-27T06:26:14.242Z,1.63
2023-02-27T06:28:53.370Z,1.58
2023-02-27T06:31:24.651Z,1.83
2023-02-27T06:33:51.197Z,2.75
2023-02-27T06:36:19.938Z,2.13
2023-02-27T06:38:48.937Z,2.80
2023-02-27T06:41:18.308Z,1.60
2023-02-27T06:43:44.821Z,2.13
2023-02-27T06:46:11.374Z,2.08
2023-02-27T06:48:38.057Z,2.25
2023-02-27T06:51:04.948Z,1.75
2023-02-27T06:53:34.782Z,8.65
2023-02-27T06:56:03.615Z,15.23
2023-02-27T06:58:32.429Z,8.65
2023-02-27T07:01:01.436Z,6.35
2023-02-27T07:03:28.119Z,5.80
2023-02-27T07:05:56.982Z,4.10
2023-02-27T07:08:25.635Z,3.38
2023-02-27T07:10:52.094Z,3.38
2023-02-27T07:13:21.134Z,2.22
2023-02-27T07:15:47.689Z,2.65
2023-02-27T07:18:14.272Z,2.70
2023-02-27T07:20:41.254Z,2.33
2023-02-27T07:23:10.654Z,2.05
2023-02-27T07:25:37.195Z,3.13
2023-02-27T07:28:05.075Z,2.67
2023-02-27T07:30:31.645Z,3.88
2023-02-27T07:33:00.541Z,6.57
2023-02-27T07:35:27.620Z,5.00
2023-02-27T07:37:54.168Z,6.15
2023-02-27T07:40:20.964Z,4.15
2023-02-27T07:42:49.731Z,3.28
2023-02-27T07:45:23.456Z,2.97
2023-02-27T07:47:54.480Z,2.47
2023-02-27T07:50:23.707Z,2.03
2023-02-27T07:52:52.037Z,2.08
2023-02-27T07:55:20.955Z,1.77
2023-02-27T07:57:49.852Z,1.83
2023-02-27T08:00:17.019Z,1.63
2023-02-27T08:02:45.686Z,1.92
2023-02-27T08:05:15.116Z,1.42
2023-02-27T08:07:44.751Z,1.70
2023-02-27T08:10:16.146Z,1.60
2023-02-27T08:12:46.083Z,1.67
2023-02-27T08:15:12.838Z,1.60
2023-02-27T08:17:41.544Z,1.90
2023-02-27T08:20:11.296Z,1.90
2023-02-27T08:22:42.627Z,1.75
2023-02-27T08:25:14.206Z,1.80
2023-02-27T08:27:40.732Z,1.45
2023-02-27T08:30:10.143Z,1.50
2023-02-27T08:32:37.285Z,1.60
2023-02-27T08:35:06.088Z,1.83
2023-02-27T08:37:32.575Z,1.55
2023-02-27T08:40:00.564Z,1.42
2023-02-27T08:42:30.497Z,1.67
2023-02-27T08:45:01.922Z,1.70
2023-02-27T08:47:28.446Z,1.98
2023-02-27T08:49:58.419Z,2.05
2023-02-27T08:52:28.367Z,1.95
2023-02-27T08:54:54.878Z,1.33
2023-02-27T08:57:21.982Z,2.75
2023-02-27T08:59:51.097Z,3.28
2023-02-27T09:02:23.502Z,3.15
2023-02-27T09:04:55.141Z,4.00
2023-02-27T09:07:21.716Z,2.67
2023-02-27T09:09:50.027Z,1.30
2023-02-27T09:12:16.915Z,1.63
2023-02-27T09:14:45.890Z,1.45
2023-02-27T09:17:14.862Z,1.60
2023-02-27T09:19:46.159Z,1.25
2023-02-27T09:22:14.299Z,2.38
2023-02-27T09:24:40.760Z,1.58
2023-02-27T09:27:09.695Z,1.48
2023-02-27T09:29:36.467Z,1.48
2023-02-27T09:32:05.361Z,1.65
2023-02-27T09:34:34.526Z,1.50
2023-02-27T09:37:01.863Z,1.50
2023-02-27T09:39:33.178Z,1.10
2023-02-27T09:42:04.872Z,2.00
2023-02-27T09:44:47.612Z,1.80
2023-02-27T09:47:19.318Z,1.15
2023-02-27T09:50:06.916Z,1.30
2023-02-27T09:52:40.178Z,1.92
2023-02-27T09:55:15.364Z,5.28
2023-02-27T09:57:49.825Z,2.50
2023-02-27T10:00:38.561Z,1.50
2023-02-27T10:03:21.456Z,3.65
2023-02-27T10:06:07.460Z,1.13
2023-02-27T10:08:52.259Z,0.98
2023-02-27T10:11:32.826Z,0.70
2023-02-27T10:14:13.438Z,1.08
2023-02-27T10:16:42.480Z,0.80
2023-02-27T10:19:23.405Z,0.70
2023-02-27T10:21:54.302Z,1.00
2023-02-27T10:24:32.682Z,4.50
2023-02-27T10:27:05.794Z,1.88
2023-02-27T10:29:39.813Z,3.20
2023-02-27T10:32:21.644Z,1.30
2023-02-27T10:34:58.843Z,1.60
2023-02-27T10:37:27.479Z,1.40
2023-02-27T10:40:00.555Z,0.57
2023-02-27T10:42:31.998Z,0.93
2023-02-27T10:45:03.680Z,0.60
2023-02-27T10:47:33.286Z,0.52
2023-02-27T10:50:03.539Z,0.70
2023-02-27T10:52:31.096Z,1.08
2023-02-27T10:55:22.786Z,0.70
2023-02-27T10:57:49.686Z,0.70
2023-02-27T11:00:45.975Z,1.50
2023-02-27T11:03:22.700Z,0.95
2023-02-27T11:05:57.321Z,0.98
2023-02-27T11:08:28.096Z,0.88
2023-02-27T11:10:59.981Z,0.50
2023-02-27T11:13:29.327Z,0.70
2023-02-27T11:16:12.668Z,0.88
2023-02-27T11:18:41.529Z,1.30
2023-02-27T11:21:24.171Z,0.65
2023-02-27T11:23:56.884Z,0.68
2023-02-27T11:26:59.124Z,0.75
2023-02-27T11:29:26.436Z,0.93
2023-02-27T11:31:53.010Z,0.85
2023-02-27T11:34:31.425Z,0.80
2023-02-27T11:37:07.315Z,0.40
2023-02-27T11:39:47.723Z,0.52
2023-02-27T11:42:26.817Z,0.75
2023-02-27T11:45:00.385Z,2.55
2023-02-27T11:47:44.129Z,6.18
2023-02-27T11:50:10.694Z,0.90
2023-02-27T11:52:50.709Z,0.70
2023-02-27T11:55:25.762Z,1.40
2023-02-27T11:58:04.683Z,0.80
2023-02-27T12:00:39.132Z,0.60
2023-02-27T12:03:27.106Z,0.70
2023-02-27T12:08:44.134Z,0.50
2023-02-27T12:11:22.166Z,0.70
2023-02-27T12:13:59.144Z,0.90
2023-02-27T12:16:34.776Z,0.55
2023-02-27T12:19:19.249Z,0.35
2023-02-27T12:21:56.855Z,0.55
2023-02-27T12:24:55.900Z,0.50
2023-02-27T12:27:29.320Z,0.90
2023-02-27T12:30:07.764Z,0.45
2023-02-27T12:33:03.747Z,0.35
2023-02-27T12:35:33.353Z,0.70
2023-02-27T12:38:02.850Z,0.57
2023-02-27T12:40:50.910Z,0.47
2023-02-27T12:46:05.150Z,0.50
2023-02-27T12:49:17.162Z,1.13
2023-02-27T12:51:51.286Z,0.52
2023-02-27T12:54:46.636Z,0.80
2023-02-27T12:57:41.138Z,0.43
2023-02-27T13:00:11.265Z,0.75
2023-02-27T13:02:59.327Z,0.77
2023-02-27T13:10:59.004Z,0.80
2023-02-27T13:13:39.624Z,0.95
2023-02-27T13:16:12.673Z,0.90
2023-02-27T13:18:54.115Z,1.00
2023-02-27T13:21:51.568Z,0.90
2023-02-27T13:24:25.822Z,0.70
2023-02-27T13:27:33.464Z,0.80
2023-02-27T13:30:02.953Z,1.00
2023-02-27T13:32:51.149Z,1.40
2023-02-27T13:35:41.763Z,3.30
2023-02-27T13:38:30.101Z,1.58
2023-02-27T13:41:29.666Z,2.00
2023-02-27T13:43:58.588Z,1.13
2023-02-27T13:46:37.045Z,1.00
2023-02-27T13:49:10.725Z,0.75
2023-02-27T13:51:46.817Z,0.82
2023-02-27T13:54:13.290Z,0.60
2023-02-27T13:56:45.746Z,0.70
2023-02-27T13:59:23.735Z,0.80
2023-02-27T14:02:02.123Z,1.10
2023-02-27T14:04:32.979Z,1.20
2023-02-27T14:07:09.129Z,0.90
2023-02-27T14:09:39.848Z,0.82
2023-02-27T14:12:42.774Z,0.80
2023-02-27T14:15:24.929Z,1.13
2023-02-27T14:18:14.168Z,0.70
2023-02-27T14:20:52.342Z,1.10
2023-02-27T14:23:25.006Z,0.70
2023-02-27T14:25:56.760Z,0.95
2023-02-27T14:28:44.825Z,0.70
2023-02-27T14:34:05.330Z,0.93
2023-02-27T14:36:42.708Z,0.82
2023-02-27T14:39:29.688Z,1.47
2023-02-27T14:42:41.791Z,1.75
2023-02-27T14:45:20.727Z,1.88
2023-02-27T14:47:51.967Z,2.10
2023-02-27T14:50:29.091Z,2.53
2023-02-27T14:52:55.735Z,1.67
2023-02-27T14:55:30.194Z,1.48
2023-02-27T14:58:19.748Z,1.02
2023-02-27T15:00:50.677Z,1.55
2023-02-27T15:03:18.869Z,0.90
2023-02-27T15:05:47.607Z,1.17
2023-02-27T15:08:24.036Z,1.02
2023-02-27T15:10:55.137Z,0.90
2023-02-27T15:13:32.138Z,0.90
2023-02-27T15:16:23.518Z,1.08
2023-02-27T15:18:53.079Z,1.10
2023-02-27T15:21:22.601Z,1.02
2023-02-27T15:23:55.133Z,1.27
2023-02-27T15:26:21.976Z,1.70
2023-02-27T15:28:51.036Z,1.20
2023-02-27T15:31:24.054Z,1.65
2023-02-27T15:33:53.941Z,1.10
2023-02-27T15:36:25.953Z,1.10
2023-02-27T15:39:18.230Z,0.90
2023-02-27T15:41:49.480Z,4.53
2023-02-27T15:44:18.663Z,1.20
2023-02-27T15:46:46.719Z,1.77
2023-02-27T15:49:20.746Z,1.25
2023-02-27T15:52:05.531Z,1.13
2023-02-27T15:54:33.963Z,0.95
2023-02-27T15:57:04.857Z,1.05
2023-02-27T15:59:38.232Z,1.30
2023-02-27T16:02:13.929Z,1.10
2023-02-27T16:04:40.501Z,1.10
2023-02-27T16:07:15.669Z,1.60
2023-02-27T16:09:46.637Z,2.00
2023-02-27T16:12:27.809Z,1.58
2023-02-27T16:15:23.339Z,1.85
2023-02-27T16:17:58.090Z,2.25
2023-02-27T16:20:39.538Z,1.27
2023-02-27T16:23:28.186Z,1.70
2023-02-27T16:26:11.099Z,1.80
2023-02-27T16:29:02.585Z,2.00
2023-02-27T16:31:33.699Z,1.13
2023-02-27T16:34:15.770Z,1.25
2023-02-27T16:36:54.158Z,0.88
2023-02-27T16:39:20.670Z,1.02
2023-02-27T16:41:51.864Z,1.20
2023-02-27T16:44:18.429Z,1.15
2023-02-27T16:46:50.777Z,0.98
2023-02-27T16:49:26.672Z,1.30
2023-02-27T16:51:55.984Z,1.30
2023-02-27T16:54:25.875Z,2.50
2023-02-27T16:56:54.778Z,1.75
2023-02-27T16:59:28.886Z,18.08
2023-02-27T17:01:56.853Z,1.27
2023-02-27T17:04:26.435Z,1.10
2023-02-27T17:06:54.583Z,0.88
2023-02-27T17:09:24.216Z,1.00
2023-02-27T17:11:50.688Z,1.10
2023-02-27T17:14:17.299Z,0.90
2023-02-27T17:16:44.481Z,0.95
2023-02-27T17:19:11.036Z,1.25
2023-02-27T17:21:37.875Z,1.65
2023-02-27T17:24:07.340Z,1.40
2023-02-27T17:26:37.373Z,1.60
2023-02-27T17:29:06.312Z,1.50
2023-02-27T17:31:35.491Z,1.30
2023-02-27T17:34:08.794Z,1.52
2023-02-27T17:36:36.186Z,1.33
2023-02-27T17:39:07.909Z,1.75
2023-02-27T17:41:36.681Z,2.20
2023-02-27T17:44:03.499Z,2.30
2023-02-27T17:46:33.210Z,2.00
2023-02-27T17:49:00.610Z,2.10
2023-02-27T17:51:31.546Z,1.50
2023-02-27T17:54:01.692Z,2.10
2023-02-27T17:56:28.864Z,12.25
2023-02-27T17:59:00.150Z,5.05
2023-02-27T18:01:29.241Z,3.53
2023-02-27T18:03:56.198Z,3.65
2023-02-27T18:06:24.282Z,2.45
2023-02-27T18:08:51.091Z,2.10
2023-02-27T18:11:19.865Z,2.30
2023-02-27T18:13:47.151Z,2.38
2023-02-27T18:16:14.567Z,3.00
2023-02-27T18:18:42.740Z,2.80
2023-02-27T18:21:15.603Z,2.72
2023-02-27T18:23:43.661Z,5.40
2023-02-27T18:26:28.452Z,3.33
2023-02-27T18:29:01.959Z,5.00
2023-02-27T18:31:32.784Z,6.13
2023-02-27T18:34:00.708Z,8.13
2023-02-27T18:36:28.449Z,10.23
2023-02-27T18:38:55.194Z,8.00
2023-02-27T18:41:21.761Z,6.03
2023-02-27T18:43:48.331Z,5.38
2023-02-27T18:46:15.029Z,6.18
2023-02-27T18:48:43.806Z,5.43
2023-02-27T18:51:14.331Z,11.40
2023-02-27T18:53:47.972Z,7.43
2023-02-27T18:56:19.395Z,13.65
2023-02-27T18:58:49.028Z,18.75
2023-02-27T19:01:20.518Z,6.32
2023-02-27T19:03:47.092Z,6.50
2023-02-27T19:06:13.750Z,3.00
2023-02-27T19:08:40.284Z,3.45
2023-02-27T19:11:06.831Z,3.10
2023-02-27T19:13:33.312Z,9.82
2023-02-27T19:16:04.719Z,6.38
2023-02-27T19:18:33.788Z,8.30
2023-02-27T19:21:05.802Z,5.82
2023-02-27T19:23:32.341Z,3.85
2023-02-27T19:26:02.607Z,2.53
2023-02-27T19:28:29.138Z,1.85
2023-02-27T19:30:55.817Z,1.67
2023-02-27T19:33:27.491Z,1.50
2023-02-27T19:35:54.048Z,1.50
2023-02-27T19:38:20.704Z,1.25
2023-02-27T19:40:54.337Z,2.00
2023-02-27T19:43:21.234Z,1.63
2023-02-27T19:45:50.151Z,2.10
2023-02-27T19:48:19.675Z,1.60
2023-02-27T19:50:46.554Z,1.55
2023-02-27T19:53:15.288Z,1.25
2023-02-27T19:55:41.960Z,2.00
2023-02-27T19:58:08.442Z,1.80
2023-02-27T20:00:37.411Z,1.30
2023-02-27T20:03:08.783Z,1.08
2023-02-27T20:05:39.065Z,1.13
2023-02-27T20:08:06.861Z,1.13
2023-02-27T20:10:33.470Z,1.48
2023-02-27T20:12:59.971Z,5.07
2023-02-27T20:15:31.248Z,3.53
2023-02-27T20:17:57.707Z,9.30
2023-02-27T20:20:24.314Z,5.40
2023-02-27T20:22:52.456Z,3.40
2023-02-27T20:25:18.953Z,3.90
2023-02-27T20:27:47.663Z,4.45
2023-02-27T20:30:16.551Z,3.80
2023-02-27T20:32:46.127Z,3.13
2023-02-27T20:35:12.694Z,3.78
2023-02-27T20:37:41.983Z,3.05
2023-02-27T20:40:14.130Z,3.47
2023-02-27T20:42:42.080Z,3.20
2023-02-27T20:45:08.775Z,2.08
2023-02-27T20:47:35.234Z,6.70
2023-02-27T20:50:02.192Z,5.15
2023-02-27T20:52:30.775Z,3.95
2023-02-27T20:54:57.303Z,2.22
2023-02-27T20:57:24.867Z,4.50
2023-02-27T20:59:54.257Z,2.00
2023-02-27T21:02:22.973Z,2.20
2023-02-27T21:04:50.742Z,1.48
2023-02-27T21:07:24.202Z,1.73
2023-02-27T21:09:50.809Z,1.67
2023-02-27T21:12:17.821Z,1.75
2023-02-27T21:14:45.197Z,1.60
2023-02-27T21:17:16.246Z,1.95
2023-02-27T21:19:45.087Z,4.32
2023-02-27T21:22:14.294Z,5.43
2023-02-27T21:24:43.224Z,1.92
2023-02-27T21:27:09.777Z,2.00
2023-02-27T21:29:38.606Z,1.48
2023-02-27T21:32:08.363Z,1.08
2023-02-27T21:34:35.061Z,1.60
2023-02-27T21:37:09.512Z,1.55
2023-02-27T21:39:41.164Z,1.67
2023-02-27T21:42:07.611Z,1.45
2023-02-27T21:44:34.212Z,1.95
2023-02-27T21:47:09.838Z,4.40
2023-02-27T21:49:36.866Z,4.10
2023-02-27T21:52:06.783Z,3.30
2023-02-27T21:54:33.320Z,2.13
2023-02-27T21:57:03.224Z,2.03
2023-02-27T21:59:32.336Z,1.55
2023-02-27T22:02:01.662Z,1.30
2023-02-27T22:04:29.384Z,1.33
2023-02-27T22:06:55.864Z,1.58
2023-02-27T22:09:25.341Z,1.40
2023-02-27T22:11:56.776Z,1.50
2023-02-27T22:14:26.216Z,1.50
2023-02-27T22:16:52.751Z,1.65
2023-02-27T22:19:20.188Z,1.88
2023-02-27T22:21:49.195Z,2.22
2023-02-27T22:24:18.397Z,2.20
2023-02-27T22:26:45.775Z,2.30
2023-02-27T22:29:14.553Z,2.40
2023-02-27T22:31:41.123Z,1.67
2023-02-27T22:34:12.514Z,2.70
2023-02-27T22:36:41.308Z,2.83
2023-02-27T22:39:08.595Z,2.10
2023-02-27T22:41:39.999Z,2.50
2023-02-27T22:44:10.251Z,2.30
2023-02-27T22:46:42.672Z,2.15
2023-02-27T22:49:23.634Z,2.20
2023-02-27T22:51:51.934Z,2.30
2023-02-27T22:56:49.150Z,1.77
2023-02-27T22:59:16.723Z,1.40
2023-02-27T23:01:43.224Z,2.07
2023-02-27T23:04:16.949Z,1.55
2023-02-27T23:06:46.535Z,1.67
2023-02-27T23:09:18.937Z,1.73
2023-02-27T23:11:48.137Z,1.50
2023-02-27T23:14:14.946Z,2.00
2023-02-27T23:16:46.815Z,1.60
2023-02-27T23:19:18.426Z,1.80
2023-02-27T23:21:45.408Z,1.80
2023-02-27T23:24:17.376Z,1.80
2023-02-27T23:26:49.597Z,1.98
2023-02-27T23:29:16.896Z,1.75
2023-02-27T23:31:46.239Z,2.25
2023-02-27T23:34:12.923Z,2.10
2023-02-27T23:36:42.684Z,1.77
2023-02-27T23:39:11.753Z,1.70
2023-02-27T23:41:38.207Z,1.48
2023-02-27T23:44:07.009Z,1.88
2023-02-27T23:46:33.475Z,1.50
2023-02-27T23:49:01.349Z,1.33
2023-02-27T23:51:30.712Z,1.48
2023-02-27T23:53:57.978Z,1.35
2023-02-27T23:56:31.709Z,1.75
2023-02-27T23:59:06.612Z,1.70
